Terminal Aerodrome Forecast
Issued by NWS

Home | Current Version | Previous Version | Text Only | Print | Product List | Glossary On
Versions: 1 2 3 4 5 6 7 8 9 10 11 12 13 14 15 16 17 18 19 20 21
000
FTUS43 KMQT 310500
TAFSAW
TAF
KSAW 310524Z 3106/0106 35005KT 2SM BR OVC006
     FM311400 04005KT P6SM BKN010
     FM311600 11007KT P6SM SCT030
     FM010000 19008KT P6SM BKN100
      AMD LTD TO CLD VIS AND WIND TIL 311000=

USA.gov is the U.S. government's official web portal to all federal, state and local government web resources and services.